createdAt,value
2022-11-18T00:01:33.284Z,97195.88
2022-11-18T00:04:18.752Z,97195.88
2022-11-18T00:07:04.378Z,97197.56
2022-11-18T00:09:49.638Z,97192.03
2022-11-18T00:12:53.263Z,97199.13
2022-11-18T00:15:38.527Z,97200.34
2022-11-18T00:18:24.209Z,97201.56
2022-11-18T00:21:11.715Z,97192.97
2022-11-18T00:23:57.197Z,97194.47
2022-11-18T00:26:42.681Z,97200.03
2022-11-18T00:29:28.542Z,97195.72
2022-11-18T00:32:14.091Z,97200.03
2022-11-18T00:34:59.400Z,97198.03
2022-11-18T00:37:44.663Z,97200.81
2022-11-18T00:40:30.107Z,97196.50
2022-11-18T00:43:15.354Z,97199.25
2022-11-18T00:46:01.114Z,97193.72
2022-11-18T00:48:46.568Z,97201.28
2022-11-18T00:51:31.984Z,97194.16
2022-11-18T00:54:17.684Z,97195.72
2022-11-18T00:57:04.568Z,97200.03
2022-11-18T00:59:50.240Z,97202.97
2022-11-18T01:02:35.812Z,97208.03
2022-11-18T01:05:21.411Z,97197.75
2022-11-18T01:08:09.281Z,97196.94
2022-11-18T01:10:54.711Z,97208.03
2022-11-18T01:13:40.200Z,97211.59
2022-11-18T01:16:27.995Z,97208.03
2022-11-18T01:19:13.760Z,97208.81
2022-11-18T01:22:03.486Z,97203.72
2022-11-18T01:24:49.083Z,97208.50
2022-11-18T01:27:34.276Z,97210.81
2022-11-18T01:30:19.818Z,97204.50
2022-11-18T01:33:06.370Z,97202.97
2022-11-18T01:35:51.998Z,97196.94
2022-11-18T01:38:37.256Z,97197.75
2022-11-18T01:41:25.670Z,97197.44
2022-11-18T01:44:48.594Z,97203.28
2022-11-18T01:47:42.403Z,97205.25
2022-11-18T01:50:29.434Z,97196.19
2022-11-18T01:53:30.822Z,97199.44
2022-11-18T01:56:24.256Z,97200.97
2022-11-18T01:59:13.565Z,97194.66
2022-11-18T02:02:01.496Z,97197.44
2022-11-18T02:04:50.041Z,97189.88
2022-11-18T02:07:42.923Z,97191.88
2022-11-18T02:10:28.608Z,97182.00
2022-11-18T02:13:14.927Z,97193.91
2022-11-18T02:16:20.668Z,97194.66
2022-11-18T02:19:29.229Z,97201.72
2022-11-18T02:22:23.757Z,97202.97
2022-11-18T02:25:31.637Z,97200.19
2022-11-18T02:28:35.292Z,97201.41
2022-11-18T02:31:41.731Z,97195.88
2022-11-18T02:34:53.485Z,97186.78
2022-11-18T02:38:02.636Z,97180.03
2022-11-18T02:41:03.568Z,97179.25
2022-11-18T02:44:06.076Z,97186.03
2022-11-18T02:46:58.578Z,97177.25
2022-11-18T02:49:49.404Z,97180.03
2022-11-18T02:52:37.902Z,97178.03
2022-11-18T02:55:25.626Z,97174.94
2022-11-18T02:58:12.612Z,97175.72
2022-11-18T03:01:00.576Z,97177.25
2022-11-18T03:03:46.524Z,97176.97
2022-11-18T03:06:37.930Z,97181.25
2022-11-18T03:09:29.412Z,97178.47
2022-11-18T03:12:46.786Z,97175.72
2022-11-18T03:15:40.237Z,97172.94
2022-11-18T03:18:37.167Z,97180.50
2022-11-18T03:21:35.673Z,97187.56
2022-11-18T03:24:28.211Z,97180.50
2022-11-18T03:27:17.710Z,97188.34
2022-11-18T03:30:08.427Z,97182.81
2022-11-18T03:33:04.567Z,97188.81
2022-11-18T03:35:53.770Z,97185.28
2022-11-18T03:38:46.236Z,97193.59
2022-11-18T03:41:36.593Z,97191.56
2022-11-18T03:44:29.093Z,97196.34
2022-11-18T03:47:27.341Z,97186.78
2022-11-18T03:50:24.325Z,97191.56
2022-11-18T03:53:11.110Z,97203.41
2022-11-18T03:56:14.220Z,97203.41
2022-11-18T03:59:13.212Z,97203.13
2022-11-18T04:07:58.915Z,97212.69
2022-11-18T04:10:59.975Z,97216.97
2022-11-18T04:13:45.547Z,97218.53
2022-11-18T04:16:31.023Z,97226.03
2022-11-18T04:19:16.426Z,97228.50
2022-11-18T04:22:01.688Z,97225.28
2022-11-18T04:24:47.006Z,97224.06
2022-11-18T04:27:32.292Z,97225.75
2022-11-18T04:30:19.323Z,97223.75
2022-11-18T04:33:05.281Z,97226.53
2022-11-18T04:35:50.522Z,97221.75
2022-11-18T04:38:35.718Z,97229.31
2022-11-18T04:41:20.953Z,97228.22
2022-11-18T04:44:13.179Z,97223.44
2022-11-18T04:47:04.401Z,97217.13
2022-11-18T04:49:49.909Z,97215.59
2022-11-18T04:52:35.224Z,97214.06
2022-11-18T04:55:20.789Z,97220.38
2022-11-18T04:58:06.484Z,97220.38
2022-11-18T05:00:51.887Z,97221.56
2022-11-18T05:03:37.100Z,97219.59
2022-11-18T05:06:23.274Z,97220.38
2022-11-18T05:09:09.469Z,97228.06
2022-11-18T05:12:13.927Z,97232.69
2022-11-18T05:14:59.534Z,97237.75
2022-11-18T05:17:45.372Z,97240.38
2022-11-18T05:20:31.037Z,97250.38
2022-11-18T05:23:16.351Z,97242.84
2022-11-18T05:26:10.254Z,97243.00
2022-11-18T05:28:55.972Z,97247.16
2022-11-18T05:31:41.538Z,97249.00
2022-11-18T05:34:26.959Z,97249.00
2022-11-18T05:37:12.464Z,97246.97
2022-11-18T05:39:58.140Z,97253.59
2022-11-18T05:43:01.999Z,97259.00
2022-11-18T05:45:51.392Z,97264.53
2022-11-18T05:48:37.109Z,97263.59
2022-11-18T05:51:22.511Z,97271.47
2022-11-18T05:54:09.692Z,97271.47
2022-11-18T05:56:55.048Z,97274.22
2022-11-18T05:59:40.296Z,97278.25
2022-11-18T06:02:25.753Z,97282.88
2022-11-18T06:05:12.229Z,97286.09
2022-11-18T06:07:58.523Z,97296.28
2022-11-18T06:10:47.068Z,97298.25
2022-11-18T06:13:50.326Z,97307.38
2022-11-18T06:16:40.973Z,97306.56
2022-11-18T06:19:26.886Z,97300.72
2022-11-18T06:22:12.824Z,97311.03
2022-11-18T06:24:58.437Z,97301.66
2022-11-18T06:27:44.718Z,97305.66
2022-11-18T06:35:48.558Z,97325.69
2022-11-18T06:38:33.942Z,97326.91
2022-11-18T06:41:19.331Z,97330.16
2022-11-18T06:44:04.560Z,97330.16
2022-11-18T06:46:55.704Z,97330.63
2022-11-18T06:49:41.250Z,97332.59
2022-11-18T06:52:26.516Z,97336.63
2022-11-18T06:55:11.843Z,97338.63
2022-11-18T06:57:57.251Z,97342.63
2022-11-18T07:00:42.862Z,97342.63
2022-11-18T07:03:28.122Z,97346.63
2022-11-18T07:06:16.277Z,97343.88
2022-11-18T07:09:03.084Z,97350.94
2022-11-18T07:11:48.428Z,97356.94
2022-11-18T07:14:33.705Z,97358.94
2022-11-18T07:17:19.218Z,97360.50
2022-11-18T07:20:04.604Z,97361.72
2022-11-18T07:22:52.903Z,97366.50
2022-11-18T07:25:44.030Z,97369.72
2022-11-18T07:28:31.541Z,97375.25
2022-11-18T07:31:19.538Z,97379.28
2022-11-18T07:34:04.741Z,97379.72
2022-11-18T07:36:50.039Z,97377.88
2022-11-18T07:39:35.412Z,97383.88
2022-11-18T07:42:20.700Z,97376.81
2022-11-18T07:45:06.263Z,97389.44
2022-11-18T07:47:51.929Z,97387.91
2022-11-18T07:50:37.418Z,97394.19
2022-11-18T07:53:22.497Z,97391.88
2022-11-18T07:56:09.246Z,97398.66
2022-11-18T07:58:55.931Z,97396.66
2022-11-18T08:01:41.347Z,97397.09
2022-11-18T08:04:26.527Z,97397.09
2022-11-18T08:07:11.845Z,97400.69
2022-11-18T08:09:57.273Z,97402.66
2022-11-18T08:12:42.445Z,97399.13
2022-11-18T08:15:27.723Z,97405.09
2022-11-18T08:18:13.943Z,97407.88
2022-11-18T08:21:04.046Z,97409.13
2022-11-18T08:23:55.054Z,97409.88
2022-11-18T08:26:40.641Z,97410.66
2022-11-18T08:29:27.740Z,97412.53
2022-11-18T08:32:13.391Z,97411.75
2022-11-18T08:34:59.201Z,97426.06
2022-11-18T08:37:44.685Z,97416.50
2022-11-18T08:40:29.917Z,97423.63
2022-11-18T08:43:15.344Z,97426.38
2022-11-18T08:46:00.534Z,97437.47
2022-11-18T08:48:45.827Z,97431.00
2022-11-18T08:51:31.060Z,97439.63
2022-11-18T09:02:15.578Z,97442.72
2022-11-18T09:05:00.818Z,97443.94
2022-11-18T09:07:46.225Z,97440.88
2022-11-18T09:10:31.378Z,97447.94
2022-11-18T09:13:47.483Z,97453.50
2022-11-18T09:16:27.671Z,97449.03
2022-11-18T09:19:45.627Z,97450.59
2022-11-18T09:22:21.183Z,97460.13
2022-11-18T09:25:07.162Z,97462.44
2022-11-18T09:27:52.752Z,97465.22
2022-11-18T09:30:38.016Z,97471.97
2022-11-18T09:33:23.849Z,97476.31
2022-11-18T09:36:19.810Z,97480.59
2022-11-18T09:39:05.689Z,97475.06
2022-11-18T09:42:28.375Z,97476.31
2022-11-18T09:45:30.887Z,97486.94
2022-11-18T09:48:19.566Z,97492.47
2022-11-18T09:51:05.884Z,97489.72
2022-11-18T09:53:51.165Z,97499.56
2022-11-18T09:56:36.565Z,97494.47
2022-11-18T09:59:24.927Z,97500.00
2022-11-18T10:02:13.468Z,97496.03
2022-11-18T10:05:14.970Z,97507.56
2022-11-18T10:08:23.740Z,97507.56
2022-11-18T10:11:20.073Z,97506.78
2022-11-18T10:14:35.057Z,97507.56
2022-11-18T10:17:29.556Z,97507.25
2022-11-18T10:20:47.723Z,97512.03
2022-11-18T10:23:57.211Z,97521.88
2022-11-18T10:26:42.590Z,97529.41
2022-11-18T10:29:27.935Z,97531.41
2022-11-18T10:32:18.308Z,97533.88
2022-11-18T10:35:03.882Z,97539.41
2022-11-18T10:38:07.713Z,97540.94
2022-11-18T10:41:08.714Z,97551.16
2022-11-18T10:43:56.329Z,97548.69
2022-11-18T10:46:42.445Z,97550.22
2022-11-18T10:49:27.894Z,97551.78
2022-11-18T10:52:14.433Z,97564.41
2022-11-18T10:55:14.001Z,97569.94
2022-11-18T10:58:18.267Z,97575.19
2022-11-18T11:01:18.955Z,97576.41
2022-11-18T11:04:20.210Z,97579.97
2022-11-18T11:07:36.736Z,97585.94
2022-11-18T11:10:23.516Z,97588.28
2022-11-18T11:13:15.715Z,97602.56
2022-11-18T11:16:05.543Z,97597.03
2022-11-18T11:19:00.038Z,97601.38
2022-11-18T11:21:45.601Z,97597.34
2022-11-18T11:24:30.948Z,97592.91
2022-11-18T11:30:38.795Z,97593.69
2022-11-18T11:33:58.227Z,97595.22
2022-11-18T11:37:20.962Z,97599.56
2022-11-18T11:40:37.704Z,97599.09
2022-11-18T11:44:07.869Z,97609.28
2022-11-18T11:47:48.136Z,97615.91
2022-11-18T11:51:05.166Z,97612.97
2022-11-18T11:54:24.618Z,97616.41
2022-11-18T11:57:43.485Z,97623.03
2022-11-18T12:00:33.367Z,97619.34
2022-11-18T12:03:51.711Z,97623.97
2022-11-18T12:06:37.858Z,97625.84
2022-11-18T12:09:32.352Z,97627.72
2022-11-18T12:12:34.345Z,97623.56
2022-11-18T12:15:57.272Z,97620.63
2022-11-18T12:18:52.872Z,97623.72
2022-11-18T12:21:47.806Z,97629.16
2022-11-18T12:24:43.522Z,97634.25
2022-11-18T12:27:30.149Z,97636.13
2022-11-18T12:30:19.398Z,97646.28
2022-11-18T12:33:17.417Z,97646.63
2022-11-18T12:36:02.674Z,97644.91
2022-11-18T12:38:48.414Z,97661.13
2022-11-18T12:41:58.552Z,97661.44
2022-11-18T12:44:46.655Z,97652.66
2022-11-18T12:47:41.251Z,97659.75
2022-11-18T12:50:48.084Z,97655.28
2022-11-18T12:53:40.093Z,97658.38
2022-11-18T12:56:34.726Z,97668.56
2022-11-18T12:59:32.881Z,97669.34
2022-11-18T13:02:27.932Z,97670.09
2022-11-18T13:05:21.753Z,97682.78
2022-11-18T13:08:15.599Z,97677.81
2022-11-18T13:11:29.007Z,97688.03
2022-11-18T13:14:44.311Z,97689.88
2022-11-18T13:17:51.810Z,97685.88
2022-11-18T13:20:38.921Z,97698.38
2022-11-18T13:23:49.934Z,97690.38
2022-11-18T13:26:35.855Z,97701.63
2022-11-18T13:29:43.558Z,97701.63
2022-11-18T13:32:29.643Z,97707.50
2022-11-18T13:35:17.574Z,97712.59
2022-11-18T13:38:03.422Z,97702.59
2022-11-18T13:41:04.630Z,97716.00
2022-11-18T13:43:54.045Z,97714.00
2022-11-18T13:46:41.823Z,97722.66
2022-11-18T13:49:47.431Z,97722.66
2022-11-18T13:52:42.016Z,97732.97
2022-11-18T13:55:30.171Z,97742.09
2022-11-18T13:58:18.738Z,97745.47
2022-11-18T14:01:13.676Z,97752.59
2022-11-18T14:04:09.644Z,97755.38
2022-11-18T14:07:34.947Z,97759.84
2022-11-18T14:10:31.401Z,97765.22
2022-11-18T14:13:26.580Z,97773.88
2022-11-18T14:16:17.969Z,97771.41
2022-11-18T14:19:04.005Z,97780.22
2022-11-18T14:21:50.037Z,97782.53
2022-11-18T14:24:35.868Z,97788.84
2022-11-18T14:27:41.338Z,97788.84
2022-11-18T14:30:35.779Z,97788.09
2022-11-18T14:33:22.988Z,97786.56
2022-11-18T14:36:17.755Z,97792.13
2022-11-18T14:39:26.289Z,97800.13
2022-11-18T14:42:13.174Z,97797.34
2022-11-18T14:44:58.726Z,97800.13
2022-11-18T14:47:44.953Z,97804.91
2022-11-18T14:50:30.752Z,97810.00
2022-11-18T14:53:16.565Z,97818.31
2022-11-18T14:56:01.986Z,97816.03
2022-11-18T14:58:47.211Z,97816.78
2022-11-18T15:01:32.693Z,97822.34
2022-11-18T15:04:20.579Z,97830.19
2022-11-18T15:07:06.329Z,97830.97
2022-11-18T15:09:52.229Z,97830.59
2022-11-18T15:12:37.436Z,97834.47
2022-11-18T15:15:23.645Z,97846.03
2022-11-18T15:18:09.414Z,97851.59
2022-11-18T15:20:54.585Z,97862.97
2022-11-18T15:23:40.479Z,97861.69
2022-11-18T15:26:28.625Z,97857.06
2022-11-18T15:29:22.845Z,97868.16
2022-11-18T15:32:08.394Z,97863.97
2022-11-18T15:34:54.001Z,97867.50
2022-11-18T15:37:40.136Z,97867.84
2022-11-18T15:40:25.266Z,97860.28
2022-11-18T15:43:10.481Z,97874.91
2022-11-18T15:45:59.787Z,97879.69
2022-11-18T15:48:45.588Z,97879.69
2022-11-18T15:51:31.168Z,97888.03
2022-11-18T15:54:16.949Z,97903.47
2022-11-18T15:57:02.423Z,97908.56
2022-11-18T15:59:48.100Z,97905.78
2022-11-18T16:02:33.738Z,97907.34
2022-11-18T16:05:19.040Z,97922.75
2022-11-18T16:08:04.428Z,97922.00
2022-11-18T16:11:14.346Z,97919.53
2022-11-18T16:14:05.703Z,97934.94
2022-11-18T16:16:54.164Z,97932.97
2022-11-18T16:19:39.484Z,97940.06
2022-11-18T16:22:24.901Z,97940.84
2022-11-18T16:25:10.366Z,97942.41
2022-11-18T16:27:59.549Z,97942.06
2022-11-18T16:31:09.727Z,97949.94
2022-11-18T16:33:55.076Z,97951.16
2022-11-18T16:36:42.352Z,97955.19
2022-11-18T16:39:28.556Z,97957.97
2022-11-18T16:42:14.198Z,97965.97
2022-11-18T16:44:59.404Z,97966.41
2022-11-18T16:47:44.889Z,97959.44
2022-11-18T16:50:30.360Z,97971.44
2022-11-18T16:53:15.652Z,97966.78
2022-11-18T16:56:03.991Z,97966.13
2022-11-18T16:58:49.711Z,97966.13
2022-11-18T17:01:35.595Z,97970.16
2022-11-18T17:07:07.026Z,97973.25
2022-11-18T17:09:53.027Z,97980.00
2022-11-18T17:12:38.924Z,97975.38
2022-11-18T17:15:25.720Z,97987.56
2022-11-18T17:20:56.448Z,97989.91
2022-11-18T17:23:41.816Z,97988.66
2022-11-18T17:26:28.179Z,98005.31
2022-11-18T17:29:13.917Z,98007.31
2022-11-18T17:31:59.758Z,98013.66
2022-11-18T17:34:44.975Z,98011.78
2022-11-18T17:37:30.942Z,98016.09
2022-11-18T17:43:02.460Z,98019.19
2022-11-18T17:45:52.591Z,98036.75
2022-11-18T17:48:38.083Z,98018.88
2022-11-18T17:51:24.638Z,98030.09
2022-11-18T17:54:10.492Z,98044.09
2022-11-18T17:56:56.186Z,98044.88
2022-11-18T17:59:41.466Z,98053.34
2022-11-18T18:02:27.278Z,98054.53
2022-11-18T18:05:12.821Z,98049.00
2022-11-18T18:07:59.170Z,98051.44
2022-11-18T18:10:44.761Z,98053.00
2022-11-18T18:13:48.818Z,98058.56
2022-11-18T18:16:34.867Z,98054.22
2022-11-18T18:19:22.459Z,98064.97
2022-11-18T18:22:07.758Z,98064.97
2022-11-18T18:24:53.307Z,98057.13
2022-11-18T18:27:39.257Z,98054.75
2022-11-18T18:30:24.800Z,98064.31
2022-11-18T18:33:10.338Z,98067.84
2022-11-18T18:36:00.817Z,98068.28
2022-11-18T18:38:46.988Z,98080.16
2022-11-18T18:41:32.960Z,98087.72
2022-11-18T18:44:19.017Z,98086.94
2022-11-18T18:47:04.796Z,98092.94
2022-11-18T18:49:50.981Z,98103.28
2022-11-18T18:52:36.600Z,98108.03
2022-11-18T18:55:22.107Z,98096.19
2022-11-18T18:58:07.302Z,98091.41
2022-11-18T19:00:56.996Z,98095.84
2022-11-18T19:03:44.431Z,98104.16
2022-11-18T19:06:56.751Z,98102.03
2022-11-18T19:09:39.850Z,98109.59
2022-11-18T19:12:43.243Z,98112.69
2022-11-18T19:15:28.819Z,98124.56
2022-11-18T19:18:14.404Z,98116.72
2022-11-18T19:20:59.581Z,98121.47
2022-11-18T19:23:44.921Z,98120.81
2022-11-18T19:26:30.435Z,98116.94
2022-11-18T19:29:16.150Z,98118.16
2022-11-18T19:32:01.497Z,98121.81
2022-11-18T19:34:46.698Z,98129.47
2022-11-18T19:37:32.287Z,98127.13
2022-11-18T19:40:18.102Z,98131.56
2022-11-18T19:43:03.709Z,98137.22
2022-11-18T19:45:52.331Z,98139.69
2022-11-18T19:48:37.642Z,98140.56
2022-11-18T19:51:23.606Z,98144.66
2022-11-18T19:54:09.318Z,98143.56
2022-11-18T19:56:54.483Z,98139.69
2022-11-18T19:59:39.884Z,98140.53
2022-11-18T20:02:25.041Z,98146.97
2022-11-18T20:05:33.357Z,98152.63
2022-11-18T20:08:24.113Z,98162.59
2022-11-18T20:11:11.590Z,98161.06
2022-11-18T20:13:56.965Z,98161.16
2022-11-18T20:16:42.480Z,98161.28
2022-11-18T20:19:28.109Z,98158.16
2022-11-18T20:22:13.395Z,98162.13
2022-11-18T20:24:59.431Z,98175.66
2022-11-18T20:27:45.559Z,98171.00
2022-11-18T20:30:30.806Z,98168.66
2022-11-18T20:33:16.032Z,98168.31
2022-11-18T20:36:22.260Z,98169.66
2022-11-18T20:39:13.621Z,98172.88
2022-11-18T20:42:17.727Z,98173.31
2022-11-18T20:45:02.919Z,98177.75
2022-11-18T20:47:48.208Z,98176.63
2022-11-18T20:50:37.609Z,98188.09
2022-11-18T20:53:25.432Z,98192.09
2022-11-18T20:56:23.796Z,98196.84
2022-11-18T20:59:09.014Z,98199.28
2022-11-18T21:01:54.352Z,98186.66
2022-11-18T21:04:40.092Z,98183.53
2022-11-18T21:07:25.384Z,98197.81
2022-11-18T21:10:10.765Z,98191.16
2022-11-18T21:13:15.158Z,98198.72
2022-11-18T21:16:01.664Z,98200.38
2022-11-18T21:18:47.684Z,98205.56
2022-11-18T21:21:45.136Z,98202.44
2022-11-18T21:24:32.987Z,98201.34
2022-11-18T21:27:18.192Z,98203.75
2022-11-18T21:30:03.804Z,98202.19
2022-11-18T21:32:49.605Z,98210.19
2022-11-18T21:35:36.430Z,98207.50
2022-11-18T21:38:21.958Z,98204.72
2022-11-18T21:41:07.918Z,98208.72
2022-11-18T21:44:08.971Z,98211.91
2022-11-18T21:46:55.068Z,98218.66
2022-11-18T21:49:40.367Z,98217.88
2022-11-18T21:52:25.667Z,98226.97
2022-11-18T21:55:10.980Z,98221.88
2022-11-18T21:58:01.218Z,98218.31
2022-11-18T22:00:48.122Z,98224.31
2022-11-18T22:03:33.434Z,98233.81
2022-11-18T22:06:19.388Z,98239.81
2022-11-18T22:09:07.232Z,98238.22
2022-11-18T22:11:52.955Z,98248.53
2022-11-18T22:14:38.217Z,98236.69
2022-11-18T22:17:23.465Z,98237.47
2022-11-18T22:20:09.341Z,98236.34
2022-11-18T22:22:55.050Z,98235.56
2022-11-18T22:25:40.550Z,98243.88
2022-11-18T22:28:26.197Z,98247.84
2022-11-18T22:31:13.051Z,98241.53
2022-11-18T22:33:58.613Z,98241.53
2022-11-18T22:36:43.814Z,98247.50
2022-11-18T22:39:29.388Z,98249.50
2022-11-18T22:42:33.361Z,98254.25
2022-11-18T22:45:18.769Z,98262.22
2022-11-18T22:48:04.398Z,98267.75
2022-11-18T22:51:00.668Z,98263.41
2022-11-18T22:53:46.138Z,98264.63
2022-11-18T22:56:31.736Z,98264.63
2022-11-18T22:59:17.803Z,98275.72
2022-11-18T23:02:03.149Z,98282.44
2022-11-18T23:04:48.488Z,98268.59
2022-11-18T23:07:33.974Z,98271.06
2022-11-18T23:10:19.575Z,98284.09
2022-11-18T23:13:23.333Z,98292.41
2022-11-18T23:16:08.488Z,98291.63
2022-11-18T23:18:53.957Z,98300.34
2022-11-18T23:21:40.204Z,98312.22
2022-11-18T23:24:25.557Z,98307.13
2022-11-18T23:27:10.961Z,98313.06
2022-11-18T23:29:56.118Z,98311.88
2022-11-18T23:32:41.559Z,98314.31
2022-11-18T23:35:26.753Z,98328.16
2022-11-18T23:38:12.066Z,98315.50
2022-11-18T23:41:00.218Z,98309.19
2022-11-18T23:43:48.226Z,98300.88
2022-11-18T23:46:34.515Z,98301.31
2022-11-18T23:49:20.490Z,98309.59
2022-11-18T23:52:06.607Z,98316.72
2022-11-18T23:54:53.084Z,98316.38
2022-11-18T23:57:38.667Z,98329.44
